Time;durP1;ratioP1;P1;durP2;ratioP2;P2;SDS_P1;SDS_P2;PMS_P1;PMS_P2;Temp;Humidity;BMP_temperature;BMP_pressure;BME280_temperature;BME280_humidity;BME280_pressure;Samples;Min_cycle;Max_cycle;Signal;HPM_P1;HPM_P2
2024/01/29 00:01:22;;;;;;;;;0.75;0.75;;;;;9.76;51.91;100816.41;5096028;28;8884;-59
2024/01/29 00:03:50;;;;;;;;;2.00;0.50;;;;;9.66;51.92;100815.28;5078421;28;8859;-59
2024/01/29 00:06:17;;;;;;;;;1.50;1.50;;;;;9.67;52.22;100811.66;5074929;28;8840;-59
2024/01/29 00:08:45;;;;;;;;;0.00;0.00;;;;;9.67;51.90;100814.31;5075239;28;8851;-59
2024/01/29 00:11:13;;;;;;;;;1.00;1.00;;;;;9.68;52.35;100810.69;5075649;28;8824;-59
2024/01/29 00:13:41;;;;;;;;;1.00;1.00;;;;;9.71;52.30;100800.72;5077431;28;8832;-58
2024/01/29 00:16:08;;;;;;;;;0.00;0.00;;;;;9.77;51.88;100799.47;5075805;28;8844;-57
2024/01/29 00:18:36;;;;;;;;;1.00;1.00;;;;;9.85;51.42;100797.19;5076064;28;8946;-58
2024/01/29 00:21:04;;;;;;;;;2.50;2.50;;;;;9.89;51.76;100791.63;5095591;28;8853;-58
2024/01/29 00:23:32;;;;;;;;;0.00;0.00;;;;;9.92;51.83;100780.75;5096934;28;9560;-57
2024/01/29 00:26:00;;;;;;;;;0.25;0.25;;;;;9.97;51.36;100786.66;5099321;28;8852;-58
2024/01/29 00:28:28;;;;;;;;;1.00;1.00;;;;;9.99;51.82;100776.75;5103533;28;8891;-58
2024/01/29 00:30:56;;;;;;;;;0.25;0.00;;;;;9.94;51.85;100780.69;5097655;28;8810;-57
2024/01/29 00:33:24;;;;;;;;;0.00;0.00;;;;;9.89;51.39;100777.44;5096538;28;8826;-58
2024/01/29 00:35:52;;;;;;;;;2.00;1.00;;;;;9.86;51.97;100783.81;5095883;28;8810;-57
2024/01/29 00:38:20;;;;;;;;;0.00;0.00;;;;;9.83;51.81;100770.72;5096491;28;8833;-58
2024/01/29 00:40:47;;;;;;;;;0.00;0.00;;;;;9.89;52.07;100777.44;5095734;28;8834;-58
2024/01/29 00:43:15;;;;;;;;;0.75;0.75;;;;;9.90;51.82;100769.38;5096634;28;8830;-58
2024/01/29 00:45:43;;;;;;;;;1.00;1.00;;;;;9.89;52.11;100759.69;5096193;28;8822;-58
2024/01/29 00:48:11;;;;;;;;;0.00;0.00;;;;;9.90;51.80;100771.16;5096812;28;8974;-58
2024/01/29 00:50:39;;;;;;;;;1.00;1.00;;;;;9.89;51.83;100777.44;5096308;28;8821;-57
2024/01/29 00:53:06;;;;;;;;;0.00;0.00;;;;;9.88;51.84;100783.72;5093093;28;8954;-58
2024/01/29 00:55:34;;;;;;;;;0.75;0.75;;;;;9.91;51.97;100775.53;5075619;28;8850;-58
2024/01/29 00:58:02;;;;;;;;;1.00;1.00;;;;;9.98;52.05;100782.19;5075527;28;9576;-56
2024/01/29 01:00:29;;;;;;;;;0.00;0.00;;;;;10.06;51.25;100770.13;5076004;28;8812;-58
2024/01/29 01:02:57;;;;;;;;;1.00;1.00;;;;;10.13;51.58;100781.22;5076380;28;9501;-57
2024/01/29 01:05:26;;;;;;;;;0.00;0.00;;;;;10.15;50.92;100771.31;5076271;28;8812;-58
2024/01/29 01:07:53;;;;;;;;;0.00;0.00;;;;;10.16;51.12;100773.91;5076020;28;8862;-56
2024/01/29 01:10:21;;;;;;;;;0.00;0.00;;;;;10.21;50.86;100771.81;5076146;28;8820;-57
2024/01/29 01:12:49;;;;;;;;;1.00;1.00;;;;;10.29;50.80;100771.28;5074092;28;8861;-57
2024/01/29 01:15:17;;;;;;;;;0.00;0.00;;;;;10.32;50.57;100771.94;5073846;28;8824;-58
2024/01/29 01:17:45;;;;;;;;;1.00;1.00;;;;;10.30;50.77;100784.50;5074346;28;8856;-56
2024/01/29 01:20:12;;;;;;;;;1.00;0.00;;;;;10.28;50.95;100783.75;5081805;28;8970;-58
2024/01/29 01:22:40;;;;;;;;;2.00;2.00;;;;;10.29;51.13;100782.81;5105958;28;8832;-57
2024/01/29 01:25:08;;;;;;;;;0.75;0.75;;;;;10.25;51.01;100775.13;5114912;28;8831;-58
2024/01/29 01:27:36;;;;;;;;;0.50;0.00;;;;;10.26;51.07;100772.34;5101156;28;8909;-58
2024/01/29 01:30:05;;;;;;;;;0.50;0.50;;;;;10.29;51.16;100777.47;5098184;28;8933;-58
2024/01/29 01:32:33;;;;;;;;;1.00;1.00;;;;;10.32;51.60;100779.94;5100426;28;8891;-57
2024/01/29 01:35:01;;;;;;;;;1.00;1.00;;;;;10.37;51.09;100772.50;5104519;28;8968;-58
2024/01/29 01:37:28;;;;;;;;;3.00;1.50;;;;;10.41;51.31;100776.66;5100235;28;8830;-56
2024/01/29 01:39:56;;;;;;;;;3.00;3.00;;;;;10.45;51.14;100774.66;5100285;28;8826;-57
2024/01/29 01:42:24;;;;;;;;;1.50;1.50;;;;;10.50;50.86;100789.41;5099343;28;8841;-57
2024/01/29 01:44:52;;;;;;;;;1.00;0.25;;;;;10.54;51.38;100787.38;5093320;28;8851;-58
2024/01/29 01:47:20;;;;;;;;;0.00;0.00;;;;;10.57;51.06;100793.38;5094811;28;8845;-58
2024/01/29 01:49:47;;;;;;;;;1.00;1.00;;;;;10.58;51.01;100792.41;5103394;28;8822;-56
2024/01/29 01:52:15;;;;;;;;;2.00;1.00;;;;;10.56;51.06;100799.63;5119427;28;8831;-57
2024/01/29 01:54:43;;;;;;;;;0.50;0.50;;;;;10.57;51.26;100803.16;5110289;28;8810;-58
2024/01/29 01:57:11;;;;;;;;;1.00;1.00;;;;;10.56;51.50;100801.44;5098725;28;8829;-58
2024/01/29 01:59:38;;;;;;;;;1.00;1.00;;;;;10.54;51.37;100798.03;5098526;28;8814;-57
2024/01/29 02:02:06;;;;;;;;;0.00;0.00;;;;;10.55;51.23;100789.94;5085699;28;8858;-57
2024/01/29 02:04:34;;;;;;;;;1.00;1.00;;;;;10.61;51.45;100799.34;5079240;28;8855;-58
2024/01/29 02:07:01;;;;;;;;;2.50;1.00;;;;;10.64;51.36;100794.66;5098264;28;9600;-58
2024/01/29 02:09:29;;;;;;;;;1.00;1.00;;;;;10.67;51.26;100790.91;5119871;28;8812;-56
2024/01/29 02:11:58;;;;;;;;;1.00;1.00;;;;;10.63;51.11;100789.44;5119644;28;9604;-58
2024/01/29 02:14:26;;;;;;;;;1.00;1.00;;;;;10.60;50.91;100795.81;5119535;28;8963;-58
2024/01/29 02:16:53;;;;;;;;;3.00;1.00;;;;;10.56;51.41;100796.97;5119591;28;8858;-58
2024/01/29 02:19:21;;;;;;;;;1.00;1.00;;;;;10.54;51.20;100800.69;5090635;28;8823;-58
2024/01/29 02:21:49;;;;;;;;;3.25;3.00;;;;;10.48;51.60;100799.28;5078343;28;8941;-58
2024/01/29 02:24:17;;;;;;;;;1.00;1.00;;;;;10.46;51.33;100806.50;5077584;28;8828;-57
2024/01/29 02:26:44;;;;;;;;;0.75;0.75;;;;;10.41;51.48;100805.94;5077216;28;8824;-57
2024/01/29 02:29:12;;;;;;;;;1.00;1.00;;;;;10.33;51.80;100800.28;5077029;28;8846;-57
2024/01/29 02:31:39;;;;;;;;;1.00;1.00;;;;;10.27;51.94;100805.16;5076672;28;8836;-58
2024/01/29 02:34:07;;;;;;;;;0.00;0.00;;;;;10.24;52.32;100803.53;5078168;28;8847;-58
2024/01/29 02:36:35;;;;;;;;;1.50;1.50;;;;;10.25;52.54;100802.56;5078454;28;8847;-58
2024/01/29 02:39:03;;;;;;;;;2.00;1.00;;;;;10.28;52.03;100807.72;5075871;28;8836;-57
2024/01/29 02:41:31;;;;;;;;;0.75;0.75;;;;;10.27;51.83;100811.34;5078079;28;8855;-59
2024/01/29 02:44:02;;;;;;;;;1.00;1.00;;;;;10.22;52.16;100810.78;5091806;28;8814;-58
2024/01/29 02:46:30;;;;;;;;;1.00;1.00;;;;;10.17;52.70;100807.53;5098199;28;8973;-58
2024/01/29 02:48:57;;;;;;;;;2.00;2.00;;;;;10.14;52.12;100815.72;5097857;28;8864;-59
2024/01/29 02:51:25;;;;;;;;;3.00;1.00;;;;;10.10;52.61;100822.19;5099766;28;8947;-59
2024/01/29 02:53:53;;;;;;;;;2.00;2.00;;;;;10.05;52.65;100821.66;5095482;28;8822;-59
2024/01/29 02:56:21;;;;;;;;;1.00;1.00;;;;;10.02;52.61;100815.63;5097871;28;9475;-58
2024/01/29 02:58:49;;;;;;;;;1.50;1.50;;;;;9.97;53.17;100828.34;5094579;28;8810;-58
2024/01/29 03:01:17;;;;;;;;;1.00;1.00;;;;;9.92;52.93;100820.66;5099741;28;8828;-57
2024/01/29 03:03:45;;;;;;;;;0.25;0.25;;;;;9.95;52.92;100819.63;5095582;28;8823;-59
2024/01/29 03:06:12;;;;;;;;;1.00;1.00;;;;;9.97;52.55;100821.25;5118737;28;8827;-58
2024/01/29 03:08:40;;;;;;;;;4.00;3.00;;;;;9.97;53.06;100815.06;5101394;28;9682;-59
2024/01/29 03:11:08;;;;;;;;;0.50;0.50;;;;;9.96;53.10;100816.00;5097814;28;8825;-58
2024/01/29 03:13:36;;;;;;;;;1.00;1.00;;;;;9.94;53.08;100813.44;5098336;28;8817;-58
2024/01/29 03:16:03;;;;;;;;;1.00;1.00;;;;;9.94;52.71;100813.44;5098045;28;8818;-58
2024/01/29 03:18:31;;;;;;;;;0.25;0.25;;;;;9.95;52.52;100815.16;5098068;28;8818;-59
2024/01/29 03:20:59;;;;;;;;;1.50;1.50;;;;;9.97;53.07;100815.94;5115782;28;8826;-58
2024/01/29 03:23:26;;;;;;;;;1.00;1.00;;;;;9.96;52.73;100806.22;5118400;28;8831;-58
2024/01/29 03:25:54;;;;;;;;;0.00;0.00;;;;;9.94;52.90;100813.44;5113407;28;8824;-58
2024/01/29 03:28:22;;;;;;;;;1.00;1.00;;;;;9.91;53.06;100818.97;5077246;28;8828;-59
2024/01/29 03:30:49;;;;;;;;;1.00;1.00;;;;;9.88;53.24;100815.63;5077658;28;8808;-58
2024/01/29 03:33:17;;;;;;;;;0.25;0.00;;;;;9.86;53.17;100814.88;5077666;28;8938;-58
2024/01/29 03:35:45;;;;;;;;;3.00;1.50;;;;;9.83;53.13;100804.44;5077762;28;8842;-58
2024/01/29 03:38:13;;;;;;;;;1.00;0.50;;;;;9.77;53.33;100803.00;5077380;28;8827;-59
2024/01/29 03:40:41;;;;;;;;;0.75;0.75;;;;;9.72;53.56;100807.75;5076921;28;8832;-59
2024/01/29 03:43:07;;;;;;;;;1.00;1.00;;;;;9.69;53.04;100810.63;5077594;28;9474;-58
2024/01/29 03:45:35;;;;;;;;;0.75;0.50;;;;;9.64;53.86;100811.84;5077036;28;8858;-58
2024/01/29 03:48:03;;;;;;;;;0.00;0.00;;;;;9.59;53.74;100821.91;5077173;28;8863;-58
2024/01/29 03:50:30;;;;;;;;;1.00;1.00;;;;;9.53;53.25;100822.28;5077464;28;8945;-59
2024/01/29 03:52:59;;;;;;;;;2.25;1.00;;;;;9.46;54.18;100831.56;5077270;28;8828;-57
2024/01/29 03:55:26;;;;;;;;;1.00;1.00;;;;;9.37;54.34;100835.66;5077349;28;8828;-57
2024/01/29 03:57:54;;;;;;;;;3.25;1.50;;;;;9.28;54.58;100838.84;5097371;28;8852;-58
2024/01/29 04:00:23;;;;;;;;;1.00;1.00;;;;;9.21;54.35;100837.53;5096478;28;8889;-58
2024/01/29 04:02:52;;;;;;;;;1.50;1.50;;;;;9.15;54.91;100842.34;5095990;28;8830;-57
2024/01/29 04:05:19;;;;;;;;;0.75;0.75;;;;;9.13;54.43;100837.13;5095377;28;8836;-58
2024/01/29 04:07:47;;;;;;;;;3.00;2.00;;;;;9.17;54.64;100827.16;5094178;28;8820;-59
2024/01/29 04:10:15;;;;;;;;;1.00;1.00;;;;;9.21;54.47;100829.56;5095214;28;8850;-59
2024/01/29 04:12:43;;;;;;;;;3.00;3.00;;;;;9.24;54.54;100833.81;5095869;28;8906;-58
2024/01/29 04:15:11;;;;;;;;;3.00;3.00;;;;;9.23;54.67;100830.31;5095573;28;8822;-59
2024/01/29 04:17:38;;;;;;;;;0.50;0.50;;;;;9.23;54.40;100840.94;5096431;28;9484;-59
2024/01/29 04:20:06;;;;;;;;;1.00;1.00;;;;;9.22;54.50;100841.91;5096864;28;8830;-58
2024/01/29 04:22:34;;;;;;;;;3.00;3.00;;;;;9.22;54.77;100841.03;5095853;28;8817;-59
2024/01/29 04:25:02;;;;;;;;;1.50;1.50;;;;;9.20;54.31;100833.16;5098056;28;8864;-56
2024/01/29 04:27:30;;;;;;;;;1.00;1.00;;;;;9.19;54.56;100828.78;5104882;28;8826;-58
2024/01/29 04:29:58;;;;;;;;;3.00;3.00;;;;;9.17;54.43;100833.34;5107184;28;8818;-58
2024/01/29 04:32:26;;;;;;;;;1.00;1.00;;;;;9.10;54.48;100832.00;5111247;28;8834;-58
2024/01/29 04:34:53;;;;;;;;;3.00;3.00;;;;;9.06;54.66;100827.81;5096095;28;8828;-57
2024/01/29 04:37:21;;;;;;;;;0.25;0.25;;;;;9.04;55.10;100819.06;5075550;28;8820;-57
2024/01/29 04:39:49;;;;;;;;;2.00;2.00;;;;;9.00;54.95;100822.88;5075410;28;8828;-57
2024/01/29 04:42:17;;;;;;;;;1.00;1.00;;;;;8.95;55.33;100832.91;5075170;28;8854;-58
2024/01/29 04:44:45;;;;;;;;;1.00;1.00;;;;;8.93;55.11;100826.81;5107914;28;8800;-58
2024/01/29 04:47:13;;;;;;;;;0.00;0.00;;;;;8.91;54.98;100828.72;5116405;28;8846;-58
2024/01/29 04:49:41;;;;;;;;;1.00;0.00;;;;;8.90;55.36;100836.78;5116738;28;8820;-57
2024/01/29 04:52:08;;;;;;;;;1.00;1.00;;;;;8.89;55.29;100833.25;5090668;28;8840;-57
2024/01/29 04:54:36;;;;;;;;;2.00;1.00;;;;;8.87;55.44;100832.50;5075063;28;8836;-58
2024/01/29 04:57:04;;;;;;;;;2.00;1.00;;;;;8.88;55.58;100823.56;5075426;28;8893;-57
2024/01/29 04:59:32;;;;;;;;;3.50;3.00;;;;;8.90;55.06;100818.19;5075715;28;8828;-58
2024/01/29 05:01:59;;;;;;;;;1.00;1.00;;;;;8.88;55.24;100828.88;5075510;28;8966;-58
2024/01/29 05:04:27;;;;;;;;;1.00;1.00;;;;;8.85;55.72;100828.22;5075800;28;8913;-57
2024/01/29 05:06:55;;;;;;;;;3.00;3.00;;;;;8.81;55.66;100832.84;5074306;28;8840;-57
2024/01/29 05:09:24;;;;;;;;;2.00;2.00;;;;;8.77;55.83;100843.72;5075166;28;8897;-56
2024/01/29 05:11:51;;;;;;;;;1.00;1.00;;;;;8.77;55.56;100846.41;5075365;28;8828;-58
2024/01/29 05:14:19;;;;;;;;;3.50;3.00;;;;;8.77;55.58;100844.59;5075725;28;8946;-59
2024/01/29 05:16:47;;;;;;;;;1.00;1.00;;;;;8.83;55.94;100846.88;5075036;28;8851;-58
2024/01/29 05:19:15;;;;;;;;;1.00;1.00;;;;;8.86;55.53;100845.84;5075557;28;8832;-57
2024/01/29 05:21:42;;;;;;;;;3.00;3.00;;;;;8.85;55.37;100847.66;5094281;28;8842;-59
2024/01/29 05:24:10;;;;;;;;;1.00;1.00;;;;;8.82;55.88;100845.16;5095072;28;8908;-58
2024/01/29 05:26:38;;;;;;;;;1.00;1.00;;;;;8.77;55.68;100851.69;5093968;28;8837;-57
2024/01/29 05:29:06;;;;;;;;;3.00;3.00;;;;;8.71;56.06;100852.06;5095852;28;8838;-58
2024/01/29 05:31:33;;;;;;;;;3.00;3.00;;;;;8.67;56.18;100859.34;5095508;28;8973;-58
2024/01/29 05:34:01;;;;;;;;;3.00;2.50;;;;;8.61;56.63;100861.50;5095925;28;8826;-57
2024/01/29 05:36:29;;;;;;;;;3.00;2.50;;;;;8.54;56.23;100866.31;5094588;28;8906;-57
2024/01/29 05:38:57;;;;;;;;;2.50;2.50;;;;;8.46;56.41;100868.53;5095403;28;8830;-56
2024/01/29 05:41:24;;;;;;;;;3.00;3.00;;;;;8.42;56.80;100863.47;5095819;28;9621;-58
2024/01/29 05:43:53;;;;;;;;;2.50;2.50;;;;;8.35;56.77;100870.91;5094547;28;8968;-57
2024/01/29 05:46:20;;;;;;;;;1.50;1.50;;;;;8.30;57.08;100861.50;5094937;28;8826;-57
2024/01/29 05:48:48;;;;;;;;;1.00;0.75;;;;;8.31;56.60;100864.09;5093905;28;8832;-57
2024/01/29 05:51:16;;;;;;;;;2.00;2.00;;;;;8.34;56.67;100869.22;5093923;28;8838;-58
2024/01/29 05:53:44;;;;;;;;;1.00;1.00;;;;;8.35;56.63;100865.59;5095261;28;8818;-57
2024/01/29 05:56:12;;;;;;;;;3.25;3.25;;;;;8.34;56.85;100869.22;5095104;28;8837;-58
2024/01/29 05:58:42;;;;;;;;;1.50;1.50;;;;;8.32;56.75;100867.56;5095321;28;8830;-58
2024/01/29 06:01:09;;;;;;;;;1.00;1.00;;;;;8.26;57.29;100870.56;5074452;28;8820;-59
2024/01/29 06:03:37;;;;;;;;;3.00;3.00;;;;;8.21;57.11;100873.47;5074339;28;8836;-56
2024/01/29 06:06:05;;;;;;;;;4.00;4.00;;;;;8.15;57.69;100864.97;5074070;28;8824;-57
2024/01/29 06:08:33;;;;;;;;;6.25;5.00;;;;;8.07;57.45;100872.50;5074554;28;8854;-58
2024/01/29 06:11:01;;;;;;;;;3.75;3.00;;;;;8.06;57.37;100870.78;5074529;28;8965;-56
2024/01/29 06:13:29;;;;;;;;;5.00;3.00;;;;;8.05;57.63;100877.03;5073554;28;8864;-58
2024/01/29 06:15:58;;;;;;;;;1.00;1.00;;;;;8.06;57.61;100874.28;5077753;28;8833;-57
2024/01/29 06:18:25;;;;;;;;;4.00;3.75;;;;;8.08;57.71;100883.03;5077555;28;8828;-59
2024/01/29 06:20:53;;;;;;;;;2.75;2.75;;;;;8.09;57.90;100887.41;5103054;28;8835;-58
2024/01/29 06:23:21;;;;;;;;;1.00;1.00;;;;;8.09;57.42;100889.19;5118038;28;8854;-58
2024/01/29 06:25:49;;;;;;;;;3.50;3.50;;;;;8.10;57.52;100896.19;5117871;28;8834;-58
2024/01/29 06:28:17;;;;;;;;;3.00;3.00;;;;;8.15;57.94;100892.34;5111202;28;8829;-58
2024/01/29 06:30:45;;;;;;;;;3.25;3.00;;;;;8.19;57.57;100885.97;5097818;28;8826;-56
2024/01/29 06:33:12;;;;;;;;;3.00;3.00;;;;;8.21;57.11;100888.56;5099447;28;8869;-58
2024/01/29 06:35:41;;;;;;;;;3.50;3.50;;;;;8.21;57.48;100886.75;5096829;28;8832;-56
2024/01/29 06:38:08;;;;;;;;;4.00;2.50;;;;;8.21;57.18;100886.75;5098158;28;8829;-56
2024/01/29 06:40:36;;;;;;;;;3.00;3.00;;;;;8.20;57.14;100885.03;5097794;28;8894;-58
2024/01/29 06:43:04;;;;;;;;;3.00;3.00;;;;;8.18;57.39;100892.19;5097965;28;8918;-58
2024/01/29 06:45:32;;;;;;;;;2.00;2.00;;;;;8.15;57.56;100895.00;5097645;28;8852;-58
2024/01/29 06:47:59;;;;;;;;;3.00;3.00;;;;;8.12;57.77;100897.81;5098099;28;8826;-58
2024/01/29 06:50:27;;;;;;;;;2.00;2.00;;;;;8.08;57.86;100893.66;5098127;28;8833;-58
2024/01/29 06:52:55;;;;;;;;;3.00;3.00;;;;;8.06;57.54;100884.06;5098081;28;8826;-58
2024/01/29 06:55:23;;;;;;;;;2.00;2.00;;;;;8.01;58.15;100883.44;5097792;28;8829;-58
2024/01/29 06:57:51;;;;;;;;;3.00;3.00;;;;;7.96;57.94;100891.66;5097673;28;8845;-56
2024/01/29 07:00:19;;;;;;;;;1.00;1.00;;;;;7.91;58.50;100890.19;5097151;28;8810;-59
2024/01/29 07:02:46;;;;;;;;;0.50;0.50;;;;;7.87;58.11;100886.84;5097069;28;8822;-58
2024/01/29 07:05:14;;;;;;;;;3.00;1.00;;;;;7.84;57.93;100884.34;5096336;28;8865;-57
2024/01/29 07:07:42;;;;;;;;;2.00;2.00;;;;;7.82;58.32;100880.03;5095908;28;8849;-58
2024/01/29 07:10:09;;;;;;;;;1.50;1.50;;;;;7.76;58.39;100886.53;5096336;28;9815;-56
2024/01/29 07:12:37;;;;;;;;;2.00;2.00;;;;;7.69;58.91;100884.31;5096126;28;8845;-58
2024/01/29 07:15:05;;;;;;;;;1.00;1.00;;;;;7.64;59.09;100885.50;5096556;28;8810;-57
2024/01/29 07:17:33;;;;;;;;;3.00;2.50;;;;;7.58;58.42;100886.66;5096067;28;8842;-59
2024/01/29 07:20:02;;;;;;;;;3.00;3.00;;;;;7.54;59.01;100889.53;5096591;28;8826;-59
2024/01/29 07:22:37;;;;;;;;;3.00;3.00;;;;;7.47;58.98;100889.00;5096878;28;8818;-57
2024/01/29 07:25:05;;;;;;;;;3.00;3.00;;;;;7.41;59.12;100901.69;5096227;28;8869;-57
2024/01/29 07:27:32;;;;;;;;;1.50;1.50;;;;;7.38;59.13;100900.09;5097062;28;8830;-57
2024/01/29 07:30:00;;;;;;;;;3.00;3.00;;;;;7.37;58.89;100908.13;5096913;28;8858;-58
2024/01/29 07:32:31;;;;;;;;;1.00;1.00;;;;;7.33;59.74;100906.53;5096590;28;8946;-56
2024/01/29 07:35:00;;;;;;;;;3.00;3.00;;;;;7.31;59.74;100908.41;5096411;28;8838;-58
2024/01/29 07:37:28;;;;;;;;;6.00;4.00;;;;;7.27;59.41;100906.88;5096747;28;8842;-58
2024/01/29 07:39:56;;;;;;;;;4.80;4.00;;;;;7.19;59.39;100909.06;5096578;28;8956;-58
2024/01/29 07:42:24;;;;;;;;;4.00;4.00;;;;;7.11;59.67;100903.25;5096449;28;8856;-56
2024/01/29 07:44:52;;;;;;;;;5.00;4.00;;;;;7.03;59.66;100908.06;5095913;28;8868;-57
2024/01/29 07:47:20;;;;;;;;;4.40;4.40;;;;;6.95;60.24;100907.59;5095848;28;8926;-58
2024/01/29 07:49:47;;;;;;;;;3.40;3.00;;;;;6.87;60.21;100900.06;5096074;28;8841;-57
2024/01/29 07:52:15;;;;;;;;;3.25;3.00;;;;;6.81;60.88;100907.44;5095827;28;8864;-57
2024/01/29 07:54:43;;;;;;;;;3.00;3.00;;;;;6.75;60.61;100913.88;5094072;28;8936;-59
2024/01/29 07:57:11;;;;;;;;;3.20;3.20;;;;;6.71;60.64;100914.09;5093746;28;8854;-56
2024/01/29 07:59:39;;;;;;;;;3.00;3.00;;;;;6.66;60.93;100910.84;5094043;28;8848;-59
2024/01/29 08:02:09;;;;;;;;;3.00;3.00;;;;;6.60;60.94;100911.13;5094687;28;8838;-57
2024/01/29 08:04:37;;;;;;;;;1.40;1.40;;;;;6.56;61.51;100915.72;5093827;28;8861;-58
2024/01/29 08:07:05;;;;;;;;;4.00;3.00;;;;;6.53;61.18;100915.84;5092970;28;8829;-57
2024/01/29 08:09:33;;;;;;;;;1.00;1.00;;;;;6.54;61.08;100914.91;5094154;28;8856;-58
2024/01/29 08:12:00;;;;;;;;;3.40;3.00;;;;;6.56;61.17;100921.00;5095187;28;8872;-58
2024/01/29 08:14:28;;;;;;;;;1.80;1.80;;;;;6.58;60.88;100929.72;5095281;28;8960;-58
2024/01/29 08:16:56;;;;;;;;;5.20;3.40;;;;;6.61;61.04;100931.38;5094929;28;8869;-57
2024/01/29 08:19:24;;;;;;;;;3.40;3.20;;;;;6.63;61.01;100930.38;5094723;28;8834;-58
2024/01/29 08:21:52;;;;;;;;;4.00;4.00;;;;;6.79;60.33;100930.47;5094332;28;8820;-59
2024/01/29 08:24:21;;;;;;;;;3.00;3.00;;;;;7.07;60.15;100915.81;5094850;28;8840;-58
2024/01/29 08:26:49;;;;;;;;;2.60;2.60;;;;;7.35;59.78;100924.06;5094803;28;8944;-59
2024/01/29 08:29:16;;;;;;;;;4.00;3.20;;;;;7.61;59.55;100925.38;5095188;28;8873;-58
2024/01/29 08:31:44;;;;;;;;;3.00;3.00;;;;;7.83;58.99;100919.75;5095601;28;8906;-59
2024/01/29 08:34:13;;;;;;;;;3.80;3.80;;;;;7.99;58.57;100915.34;5094707;28;8822;-59
2024/01/29 08:36:41;;;;;;;;;4.80;3.80;;;;;8.14;58.36;100922.47;5092899;28;9506;-57
2024/01/29 08:39:09;;;;;;;;;6.50;6.25;;;;;8.26;58.44;100920.97;5093277;28;9517;-59
2024/01/29 08:41:37;;;;;;;;;4.25;3.25;;;;;8.40;58.17;100913.13;5094046;28;8837;-57
2024/01/29 08:44:06;;;;;;;;;3.00;3.00;;;;;8.53;58.09;100916.81;5093980;28;8818;-57
2024/01/29 08:46:34;;;;;;;;;2.00;1.00;;;;;8.64;58.11;100907.31;5093799;28;8865;-58
2024/01/29 08:49:01;;;;;;;;;1.00;1.00;;;;;8.74;57.83;100911.16;5094406;28;8952;-59
2024/01/29 08:51:29;;;;;;;;;3.00;3.00;;;;;8.81;57.56;100906.38;5095087;28;8818;-58
2024/01/29 08:53:57;;;;;;;;;3.00;3.00;;;;;8.86;57.41;100905.16;5094279;28;8821;-58
2024/01/29 08:56:25;;;;;;;;;4.00;4.00;;;;;8.89;57.84;100891.69;5095089;28;8841;-58
2024/01/29 08:58:53;;;;;;;;;4.00;4.00;;;;;8.96;57.68;100897.50;5094705;28;8979;-57
2024/01/29 09:01:21;;;;;;;;;3.00;3.00;;;;;9.01;57.55;100903.41;5095313;28;8849;-59
2024/01/29 09:03:48;;;;;;;;;2.50;1.00;;;;;9.09;57.68;100911.78;5095266;28;8841;-59
2024/01/29 09:06:17;;;;;;;;;2.50;2.50;;;;;9.16;57.37;100903.38;5095227;28;8844;-56
2024/01/29 09:08:45;;;;;;;;;3.00;3.00;;;;;9.25;57.63;100905.50;5095373;28;8855;-59
2024/01/29 09:11:13;;;;;;;;;3.25;3.25;;;;;9.34;57.19;100898.78;5094153;28;8980;-58
2024/01/29 09:13:41;;;;;;;;;3.75;3.75;;;;;9.44;57.06;100902.59;5094245;28;9595;-59
2024/01/29 09:16:08;;;;;;;;;3.75;3.25;;;;;9.52;57.01;100903.00;5094466;28;8979;-56
2024/01/29 09:18:36;;;;;;;;;3.50;3.00;;;;;9.60;56.43;100906.91;5094359;28;9530;-58
2024/01/29 09:21:04;;;;;;;;;6.00;4.50;;;;;9.68;56.75;100909.97;5093311;28;8906;-59
2024/01/29 09:23:32;;;;;;;;;6.00;3.00;;;;;9.76;56.93;100910.34;5093453;28;8837;-57
2024/01/29 09:26:00;;;;;;;;;3.00;3.00;;;;;9.85;56.75;100909.78;5093374;28;8837;-59
2024/01/29 09:28:29;;;;;;;;;4.00;4.00;;;;;9.93;56.53;100904.84;5093679;28;8981;-57
2024/01/29 09:30:56;;;;;;;;;2.00;1.00;;;;;10.02;56.37;100917.56;5093138;28;8833;-58
2024/01/29 09:33:24;;;;;;;;;3.25;3.00;;;;;10.09;56.30;100905.63;5093293;28;8841;-57
2024/01/29 09:35:53;;;;;;;;;3.00;3.00;;;;;10.16;56.28;100909.63;5094043;28;8852;-59
2024/01/29 09:38:21;;;;;;;;;1.50;1.50;;;;;10.22;56.21;100911.03;5094147;28;8945;-58
2024/01/29 09:40:49;;;;;;;;;3.00;3.00;;;;;10.27;56.15;100907.16;5093332;28;8841;-58
2024/01/29 09:43:17;;;;;;;;;2.00;2.00;;;;;10.34;56.06;100905.84;5093577;28;8833;-58
2024/01/29 09:45:45;;;;;;;;;0.00;0.00;;;;;10.43;55.83;100913.22;5093054;28;8856;-57
2024/01/29 09:48:12;;;;;;;;;2.50;1.50;;;;;10.54;55.89;100917.88;5093756;28;8849;-57
2024/01/29 09:50:41;;;;;;;;;2.50;1.00;;;;;10.62;55.56;100916.41;5096191;28;9487;-57
2024/01/29 09:53:11;;;;;;;;;1.00;1.00;;;;;10.69;55.60;100922.22;5096913;28;8841;-58
2024/01/29 09:55:38;;;;;;;;;5.00;3.75;;;;;10.75;55.48;100925.34;5097025;28;8858;-59
2024/01/29 09:58:06;;;;;;;;;6.00;4.00;;;;;10.86;56.14;100932.63;5097025;28;8834;-59
2024/01/29 10:00:34;;;;;;;;;5.00;4.00;;;;;10.95;55.72;100930.22;5096392;28;8830;-56
2024/01/29 10:03:03;;;;;;;;;3.25;3.00;;;;;11.08;55.64;100930.28;5096807;28;8834;-58
2024/01/29 10:05:31;;;;;;;;;4.00;3.25;;;;;11.19;54.98;100922.41;5096378;28;8894;-58
2024/01/29 10:07:59;;;;;;;;;0.00;0.00;;;;;11.28;55.67;100922.66;5096643;28;8837;-59
2024/01/29 10:10:27;;;;;;;;;3.00;3.00;;;;;11.38;55.18;100918.41;5094976;28;8841;-59
2024/01/29 10:12:55;;;;;;;;;3.50;2.50;;;;;11.47;55.15;100909.81;5092749;28;8840;-58
2024/01/29 10:15:23;;;;;;;;;3.50;3.50;;;;;11.62;54.84;100923.94;5094452;28;8837;-59
2024/01/29 10:17:51;;;;;;;;;1.00;0.50;;;;;11.77;54.92;100918.44;5095695;28;8866;-59
2024/01/29 10:20:20;;;;;;;;;1.50;1.50;;;;;11.99;54.16;100918.63;5095374;28;8818;-58
2024/01/29 10:22:48;;;;;;;;;4.00;4.00;;;;;12.27;54.51;100913.91;5095405;28;8942;-57
2024/01/29 10:25:16;;;;;;;;;5.50;4.00;;;;;12.61;53.67;100912.34;5094952;28;8842;-59
2024/01/29 10:27:45;;;;;;;;;3.50;3.50;;;;;12.96;53.52;100918.66;5095445;28;8966;-58
2024/01/29 10:30:13;;;;;;;;;4.50;4.00;;;;;13.33;52.85;100928.31;5096693;28;8836;-58
2024/01/29 10:32:41;;;;;;;;;3.00;3.00;;;;;13.78;52.72;100919.47;5096180;28;8845;-60
2024/01/29 10:35:10;;;;;;;;;3.75;3.75;;;;;14.36;51.03;100922.84;5096662;28;8842;-58
2024/01/29 10:37:38;;;;;;;;;3.75;3.75;;;;;14.93;50.38;100917.28;5096726;28;8891;-58
2024/01/29 10:40:06;;;;;;;;;3.00;3.00;;;;;15.51;49.36;100903.47;5096714;28;8838;-59
2024/01/29 10:42:34;;;;;;;;;4.00;3.50;;;;;16.12;49.05;100905.25;5097105;28;8830;-58
2024/01/29 10:45:02;;;;;;;;;4.00;4.00;;;;;16.68;48.00;100915.44;5097290;28;8949;-58
2024/01/29 10:47:30;;;;;;;;;5.20;5.20;;;;;17.04;47.69;100907.63;5097071;28;8854;-59
2024/01/29 10:49:58;;;;;;;;;4.00;4.00;;;;;17.49;47.64;100903.44;5097573;28;8813;-56
2024/01/29 10:52:26;;;;;;;;;4.00;4.00;;;;;17.96;46.65;100902.50;5097602;28;8843;-58
2024/01/29 10:54:54;;;;;;;;;4.00;3.60;;;;;18.38;46.34;100911.91;5096963;28;8845;-57
2024/01/29 10:57:22;;;;;;;;;4.00;4.00;;;;;18.55;46.52;100904.88;5096980;28;8853;-58
2024/01/29 10:59:50;;;;;;;;;4.00;4.00;;;;;18.67;46.30;100909.91;5096216;28;8856;-56
2024/01/29 11:02:18;;;;;;;;;5.20;4.00;;;;;18.77;46.24;100912.56;5096708;28;8833;-54
2024/01/29 11:04:45;;;;;;;;;7.00;4.00;;;;;18.90;45.40;100904.97;5096785;28;8863;-59
2024/01/29 11:07:13;;;;;;;;;4.80;4.40;;;;;18.80;46.38;100906.88;5097162;28;8911;-55
2024/01/29 11:09:41;;;;;;;;;3.60;1.40;;;;;18.63;45.85;100908.53;5096965;28;8871;-57
2024/01/29 11:12:10;;;;;;;;;4.80;4.00;;;;;18.65;46.50;100901.13;5097074;28;8930;-57
2024/01/29 11:14:39;;;;;;;;;6.00;6.00;;;;;18.60;46.82;100898.03;5095843;28;8963;-56
2024/01/29 11:17:06;;;;;;;;;3.80;3.60;;;;;18.53;46.74;100896.09;5095807;28;8980;-59
2024/01/29 11:19:34;;;;;;;;;4.00;4.00;;;;;18.60;46.58;100895.31;5096267;28;8887;-58
2024/01/29 11:22:03;;;;;;;;;6.00;5.20;;;;;18.92;46.15;100890.34;5095744;28;8907;-58
2024/01/29 11:24:31;;;;;;;;;5.60;4.00;;;;;19.30;45.59;100881.97;5096100;28;8834;-57
2024/01/29 11:26:58;;;;;;;;;3.00;3.00;;;;;19.66;44.66;100894.44;5094870;28;8838;-56
2024/01/29 11:29:27;;;;;;;;;6.00;5.20;;;;;20.04;44.50;100899.44;5095100;28;8848;-59
2024/01/29 11:31:54;;;;;;;;;7.00;7.00;;;;;20.31;43.69;100895.78;5094851;28;8850;-57
2024/01/29 11:34:22;;;;;;;;;7.00;6.00;;;;;20.34;43.40;100890.03;5094840;28;8838;-59
2024/01/29 11:36:51;;;;;;;;;6.00;6.00;;;;;20.25;44.11;100894.56;5095574;28;8834;-58
2024/01/29 11:39:18;;;;;;;;;6.40;6.40;;;;;20.14;44.31;100888.56;5092950;28;8857;-57
2024/01/29 11:41:47;;;;;;;;;4.00;4.00;;;;;20.15;43.96;100892.97;5094068;28;8834;-58